Collado Mediano, Spain
Current Conditions -  °F | °C
As of 2:30 PM on Sunday 21 Dec 2014 (Local Time) from LEVS Reporting Station
Clear Clear  
Wind Chill: 55°   Ceiling: Unl
Heat Index: 55°   Visibility: 6mi
Dew Point: 41°   Wind: 6mph
Humidity: 58%   Direction: 100°E
Pressure: 30.48"   Gusts: NA
Location:  40.69°N, 4.02°W
Report Text: LEVS 211330Z 10005KT 030V140 CAVOK 13/05 Q1032
Loading
Personal Weather Stations






























Interactive Weather Map New forecast layout! Learn more

10-Day Weather Forecast

Advertisements
Track Severe Weather on mobile